Terminal Aerodrome Forecast
Issued by NWS

Home | Current Version | Previous Version | Text Only | Print | Product List | Glossary On
Versions: 1 2 3 4 5 6 7 8 9 10 11 12 13 14 15 16 17
870
FTUS41 KPHI 211140
TAFMIV
TAF
KMIV 211140Z 2112/2212 20007KT P6SM SCT250
     FM211400 21010G23KT P6SM SCT250
     FM212100 20010KT P6SM BKN150 PROB30 2203/2206 5SM -SHRA OVC050
     FM220600 21007KT 6SM -SHRA OVC035
     FM221000 25006KT 6SM -SHRA OVC035=

USA.gov is the U.S. government's official web portal to all federal, state and local government web resources and services.